sensor_id;sensor_type;location;lat;lon;timestamp;P1;durP1;ratioP1;P2;durP2;ratioP2
74102;SDS011;62853;46.166;3.640;2023-12-07T00:01:20;8.45;;;5.60;;
74102;SDS011;62853;46.166;3.640;2023-12-07T00:03:45;7.70;;;5.35;;
74102;SDS011;62853;46.166;3.640;2023-12-07T00:06:10;6.88;;;4.95;;
74102;SDS011;62853;46.166;3.640;2023-12-07T00:08:36;9.70;;;5.55;;
74102;SDS011;62853;46.166;3.640;2023-12-07T00:11:01;7.53;;;4.97;;
74102;SDS011;62853;46.166;3.640;2023-12-07T00:13:27;6.95;;;4.95;;
74102;SDS011;62853;46.166;3.640;2023-12-07T00:15:52;7.10;;;5.10;;
74102;SDS011;62853;46.166;3.640;2023-12-07T00:18:17;8.48;;;5.45;;
74102;SDS011;62853;46.166;3.640;2023-12-07T00:20:43;8.52;;;5.00;;
74102;SDS011;62853;46.166;3.640;2023-12-07T00:23:08;8.38;;;5.97;;
74102;SDS011;62853;46.166;3.640;2023-12-07T00:25:33;7.97;;;5.50;;
74102;SDS011;62853;46.166;3.640;2023-12-07T00:27:59;7.55;;;5.30;;
74102;SDS011;62853;46.166;3.640;2023-12-07T00:30:24;8.95;;;5.68;;
74102;SDS011;62853;46.166;3.640;2023-12-07T00:32:50;7.00;;;5.25;;
74102;SDS011;62853;46.166;3.640;2023-12-07T00:35:15;6.43;;;5.47;;
74102;SDS011;62853;46.166;3.640;2023-12-07T00:37:41;8.73;;;6.05;;
74102;SDS011;62853;46.166;3.640;2023-12-07T00:40:06;7.80;;;5.95;;
74102;SDS011;62853;46.166;3.640;2023-12-07T00:42:35;8.13;;;5.32;;
74102;SDS011;62853;46.166;3.640;2023-12-07T00:45:00;9.88;;;5.72;;
74102;SDS011;62853;46.166;3.640;2023-12-07T00:47:26;8.43;;;5.50;;
74102;SDS011;62853;46.166;3.640;2023-12-07T00:49:51;7.85;;;5.65;;
74102;SDS011;62853;46.166;3.640;2023-12-07T00:52:17;7.55;;;5.65;;
74102;SDS011;62853;46.166;3.640;2023-12-07T00:54:43;8.55;;;6.07;;
74102;SDS011;62853;46.166;3.640;2023-12-07T00:57:08;8.55;;;5.72;;
74102;SDS011;62853;46.166;3.640;2023-12-07T00:59:33;11.68;;;6.00;;
74102;SDS011;62853;46.166;3.640;2023-12-07T01:02:02;8.20;;;5.82;;
74102;SDS011;62853;46.166;3.640;2023-12-07T01:04:28;8.30;;;5.80;;
74102;SDS011;62853;46.166;3.640;2023-12-07T01:06:54;8.07;;;5.90;;
74102;SDS011;62853;46.166;3.640;2023-12-07T01:09:20;10.18;;;6.13;;
74102;SDS011;62853;46.166;3.640;2023-12-07T01:11:46;8.35;;;5.78;;
74102;SDS011;62853;46.166;3.640;2023-12-07T01:14:12;9.18;;;6.03;;
74102;SDS011;62853;46.166;3.640;2023-12-07T01:16:38;7.65;;;5.93;;
74102;SDS011;62853;46.166;3.640;2023-12-07T01:19:03;8.10;;;5.75;;
74102;SDS011;62853;46.166;3.640;2023-12-07T01:21:28;9.80;;;5.78;;
74102;SDS011;62853;46.166;3.640;2023-12-07T01:23:54;8.50;;;6.28;;
74102;SDS011;62853;46.166;3.640;2023-12-07T01:26:19;7.60;;;5.38;;
74102;SDS011;62853;46.166;3.640;2023-12-07T01:28:45;8.95;;;5.93;;
74102;SDS011;62853;46.166;3.640;2023-12-07T01:31:10;8.00;;;5.45;;
74102;SDS011;62853;46.166;3.640;2023-12-07T01:33:35;9.30;;;5.60;;
74102;SDS011;62853;46.166;3.640;2023-12-07T01:36:01;10.55;;;5.88;;
74102;SDS011;62853;46.166;3.640;2023-12-07T01:38:26;7.75;;;5.45;;
74102;SDS011;62853;46.166;3.640;2023-12-07T01:40:51;8.40;;;5.75;;
74102;SDS011;62853;46.166;3.640;2023-12-07T01:43:17;9.00;;;6.32;;
74102;SDS011;62853;46.166;3.640;2023-12-07T01:45:42;8.10;;;6.07;;
74102;SDS011;62853;46.166;3.640;2023-12-07T01:48:08;9.75;;;6.40;;
74102;SDS011;62853;46.166;3.640;2023-12-07T01:50:33;11.35;;;6.50;;
74102;SDS011;62853;46.166;3.640;2023-12-07T01:53:02;9.93;;;6.45;;
74102;SDS011;62853;46.166;3.640;2023-12-07T01:55:29;9.45;;;6.50;;
74102;SDS011;62853;46.166;3.640;2023-12-07T01:57:57;8.48;;;5.75;;
74102;SDS011;62853;46.166;3.640;2023-12-07T02:00:23;8.32;;;6.00;;
74102;SDS011;62853;46.166;3.640;2023-12-07T02:02:49;9.63;;;7.00;;
74102;SDS011;62853;46.166;3.640;2023-12-07T02:05:16;9.60;;;6.45;;
74102;SDS011;62853;46.166;3.640;2023-12-07T02:07:42;10.23;;;6.32;;
74102;SDS011;62853;46.166;3.640;2023-12-07T02:10:07;9.35;;;6.80;;
74102;SDS011;62853;46.166;3.640;2023-12-07T02:12:33;9.73;;;6.25;;
74102;SDS011;62853;46.166;3.640;2023-12-07T02:15:00;9.35;;;6.72;;
74102;SDS011;62853;46.166;3.640;2023-12-07T02:17:28;8.38;;;6.15;;
74102;SDS011;62853;46.166;3.640;2023-12-07T02:20:05;9.93;;;6.90;;
74102;SDS011;62853;46.166;3.640;2023-12-07T02:22:37;8.70;;;5.95;;
74102;SDS011;62853;46.166;3.640;2023-12-07T02:25:06;10.15;;;6.90;;
74102;SDS011;62853;46.166;3.640;2023-12-07T02:27:37;9.25;;;6.65;;
74102;SDS011;62853;46.166;3.640;2023-12-07T02:30:03;9.98;;;6.43;;
74102;SDS011;62853;46.166;3.640;2023-12-07T02:32:29;10.20;;;7.03;;
74102;SDS011;62853;46.166;3.640;2023-12-07T02:34:54;11.70;;;7.30;;
74102;SDS011;62853;46.166;3.640;2023-12-07T02:37:20;10.13;;;7.10;;
74102;SDS011;62853;46.166;3.640;2023-12-07T02:39:49;11.57;;;7.72;;
74102;SDS011;62853;46.166;3.640;2023-12-07T02:42:16;9.23;;;7.05;;
74102;SDS011;62853;46.166;3.640;2023-12-07T02:44:42;10.85;;;6.57;;
74102;SDS011;62853;46.166;3.640;2023-12-07T02:47:08;11.02;;;6.95;;
74102;SDS011;62853;46.166;3.640;2023-12-07T02:49:33;10.82;;;7.07;;
74102;SDS011;62853;46.166;3.640;2023-12-07T02:51:59;10.48;;;6.72;;
74102;SDS011;62853;46.166;3.640;2023-12-07T02:54:24;10.25;;;7.18;;
74102;SDS011;62853;46.166;3.640;2023-12-07T02:56:49;10.95;;;7.28;;
74102;SDS011;62853;46.166;3.640;2023-12-07T02:59:15;12.30;;;7.28;;
74102;SDS011;62853;46.166;3.640;2023-12-07T03:01:40;10.25;;;7.57;;
74102;SDS011;62853;46.166;3.640;2023-12-07T03:04:05;12.18;;;7.60;;
74102;SDS011;62853;46.166;3.640;2023-12-07T03:06:31;10.25;;;6.65;;
74102;SDS011;62853;46.166;3.640;2023-12-07T03:08:56;11.23;;;7.45;;
74102;SDS011;62853;46.166;3.640;2023-12-07T03:11:22;11.65;;;7.60;;
74102;SDS011;62853;46.166;3.640;2023-12-07T03:13:49;11.65;;;7.13;;
74102;SDS011;62853;46.166;3.640;2023-12-07T03:16:14;10.68;;;7.45;;
74102;SDS011;62853;46.166;3.640;2023-12-07T03:18:39;11.32;;;7.63;;
74102;SDS011;62853;46.166;3.640;2023-12-07T03:21:05;11.55;;;7.85;;
74102;SDS011;62853;46.166;3.640;2023-12-07T03:23:30;11.15;;;7.57;;
74102;SDS011;62853;46.166;3.640;2023-12-07T03:25:55;13.57;;;8.35;;
74102;SDS011;62853;46.166;3.640;2023-12-07T03:28:21;11.82;;;7.93;;
74102;SDS011;62853;46.166;3.640;2023-12-07T03:30:46;11.80;;;7.70;;
74102;SDS011;62853;46.166;3.640;2023-12-07T03:33:11;12.13;;;8.48;;
74102;SDS011;62853;46.166;3.640;2023-12-07T03:35:37;11.27;;;7.47;;
74102;SDS011;62853;46.166;3.640;2023-12-07T03:38:03;12.52;;;7.80;;
74102;SDS011;62853;46.166;3.640;2023-12-07T03:40:28;12.48;;;8.57;;
74102;SDS011;62853;46.166;3.640;2023-12-07T03:42:53;12.38;;;7.78;;
74102;SDS011;62853;46.166;3.640;2023-12-07T03:45:19;12.88;;;8.18;;
74102;SDS011;62853;46.166;3.640;2023-12-07T03:47:44;13.07;;;8.00;;
74102;SDS011;62853;46.166;3.640;2023-12-07T03:50:10;11.55;;;7.53;;
74102;SDS011;62853;46.166;3.640;2023-12-07T03:52:35;10.63;;;7.20;;
74102;SDS011;62853;46.166;3.640;2023-12-07T03:55:01;12.95;;;7.70;;
74102;SDS011;62853;46.166;3.640;2023-12-07T03:57:26;11.70;;;7.07;;
74102;SDS011;62853;46.166;3.640;2023-12-07T03:59:51;11.25;;;8.05;;
74102;SDS011;62853;46.166;3.640;2023-12-07T04:02:18;12.25;;;7.78;;
74102;SDS011;62853;46.166;3.640;2023-12-07T04:04:44;11.65;;;7.72;;
74102;SDS011;62853;46.166;3.640;2023-12-07T04:07:09;11.40;;;6.95;;
74102;SDS011;62853;46.166;3.640;2023-12-07T04:09:35;11.07;;;7.60;;
74102;SDS011;62853;46.166;3.640;2023-12-07T04:12:01;11.43;;;7.38;;
74102;SDS011;62853;46.166;3.640;2023-12-07T04:14:26;10.13;;;6.55;;
74102;SDS011;62853;46.166;3.640;2023-12-07T04:16:52;10.77;;;7.32;;
74102;SDS011;62853;46.166;3.640;2023-12-07T04:19:18;12.80;;;8.05;;
74102;SDS011;62853;46.166;3.640;2023-12-07T04:21:43;10.15;;;6.90;;
74102;SDS011;62853;46.166;3.640;2023-12-07T04:24:08;11.15;;;7.30;;
74102;SDS011;62853;46.166;3.640;2023-12-07T04:26:34;12.38;;;7.15;;
74102;SDS011;62853;46.166;3.640;2023-12-07T04:28:59;10.77;;;6.85;;
74102;SDS011;62853;46.166;3.640;2023-12-07T04:31:24;16.30;;;8.27;;
74102;SDS011;62853;46.166;3.640;2023-12-07T04:33:50;11.55;;;6.60;;
74102;SDS011;62853;46.166;3.640;2023-12-07T04:36:16;10.77;;;7.05;;
74102;SDS011;62853;46.166;3.640;2023-12-07T04:38:41;9.80;;;6.63;;
74102;SDS011;62853;46.166;3.640;2023-12-07T04:41:07;9.75;;;6.32;;
74102;SDS011;62853;46.166;3.640;2023-12-07T04:43:32;12.27;;;7.25;;
74102;SDS011;62853;46.166;3.640;2023-12-07T04:45:58;10.55;;;7.35;;
74102;SDS011;62853;46.166;3.640;2023-12-07T04:48:24;10.23;;;6.78;;
74102;SDS011;62853;46.166;3.640;2023-12-07T04:50:50;10.05;;;6.20;;
74102;SDS011;62853;46.166;3.640;2023-12-07T04:53:16;9.98;;;6.57;;
74102;SDS011;62853;46.166;3.640;2023-12-07T04:55:41;10.40;;;6.32;;
74102;SDS011;62853;46.166;3.640;2023-12-07T04:58:11;8.93;;;6.28;;
74102;SDS011;62853;46.166;3.640;2023-12-07T05:00:37;9.70;;;5.82;;
74102;SDS011;62853;46.166;3.640;2023-12-07T05:03:02;9.07;;;6.28;;
74102;SDS011;62853;46.166;3.640;2023-12-07T05:05:28;10.73;;;6.55;;
74102;SDS011;62853;46.166;3.640;2023-12-07T05:07:53;8.98;;;5.72;;
74102;SDS011;62853;46.166;3.640;2023-12-07T05:10:18;9.18;;;5.90;;
74102;SDS011;62853;46.166;3.640;2023-12-07T05:12:44;9.75;;;6.20;;
74102;SDS011;62853;46.166;3.640;2023-12-07T05:15:09;10.30;;;6.35;;
74102;SDS011;62853;46.166;3.640;2023-12-07T05:17:35;10.18;;;6.38;;
74102;SDS011;62853;46.166;3.640;2023-12-07T05:20:00;9.30;;;5.78;;
74102;SDS011;62853;46.166;3.640;2023-12-07T05:22:27;11.32;;;6.15;;
74102;SDS011;62853;46.166;3.640;2023-12-07T05:24:52;10.55;;;6.30;;
74102;SDS011;62853;46.166;3.640;2023-12-07T05:27:17;10.10;;;6.00;;
74102;SDS011;62853;46.166;3.640;2023-12-07T05:29:43;8.82;;;6.03;;
74102;SDS011;62853;46.166;3.640;2023-12-07T05:32:08;9.93;;;5.95;;
74102;SDS011;62853;46.166;3.640;2023-12-07T05:34:34;8.85;;;5.65;;
74102;SDS011;62853;46.166;3.640;2023-12-07T05:37:00;9.15;;;6.70;;
74102;SDS011;62853;46.166;3.640;2023-12-07T05:39:26;8.52;;;5.68;;
74102;SDS011;62853;46.166;3.640;2023-12-07T05:41:51;10.32;;;6.43;;
74102;SDS011;62853;46.166;3.640;2023-12-07T05:44:16;9.85;;;5.75;;
74102;SDS011;62853;46.166;3.640;2023-12-07T05:46:46;9.80;;;6.20;;
74102;SDS011;62853;46.166;3.640;2023-12-07T05:49:12;9.32;;;5.45;;
74102;SDS011;62853;46.166;3.640;2023-12-07T05:51:38;9.73;;;5.53;;
74102;SDS011;62853;46.166;3.640;2023-12-07T05:54:03;9.18;;;5.70;;
74102;SDS011;62853;46.166;3.640;2023-12-07T05:56:29;9.00;;;5.57;;
74102;SDS011;62853;46.166;3.640;2023-12-07T05:58:56;10.15;;;5.50;;
74102;SDS011;62853;46.166;3.640;2023-12-07T06:01:22;10.32;;;5.75;;
74102;SDS011;62853;46.166;3.640;2023-12-07T06:03:49;8.77;;;5.50;;
74102;SDS011;62853;46.166;3.640;2023-12-07T06:06:15;8.85;;;5.85;;
74102;SDS011;62853;46.166;3.640;2023-12-07T06:08:40;9.30;;;5.63;;
74102;SDS011;62853;46.166;3.640;2023-12-07T06:11:06;9.27;;;6.05;;
74102;SDS011;62853;46.166;3.640;2023-12-07T06:13:32;9.30;;;5.72;;
74102;SDS011;62853;46.166;3.640;2023-12-07T06:15:58;9.10;;;5.40;;
74102;SDS011;62853;46.166;3.640;2023-12-07T06:18:24;9.35;;;5.72;;
74102;SDS011;62853;46.166;3.640;2023-12-07T06:20:49;9.60;;;5.65;;
74102;SDS011;62853;46.166;3.640;2023-12-07T06:23:15;9.13;;;5.50;;
74102;SDS011;62853;46.166;3.640;2023-12-07T06:25:40;8.02;;;5.07;;
74102;SDS011;62853;46.166;3.640;2023-12-07T06:28:06;9.15;;;5.80;;
74102;SDS011;62853;46.166;3.640;2023-12-07T06:30:31;10.23;;;6.10;;
74102;SDS011;62853;46.166;3.640;2023-12-07T06:32:57;8.90;;;5.60;;
74102;SDS011;62853;46.166;3.640;2023-12-07T06:35:22;10.52;;;6.15;;
74102;SDS011;62853;46.166;3.640;2023-12-07T06:37:48;11.07;;;6.05;;
74102;SDS011;62853;46.166;3.640;2023-12-07T06:40:13;9.88;;;6.00;;
74102;SDS011;62853;46.166;3.640;2023-12-07T06:42:39;10.32;;;5.55;;
74102;SDS011;62853;46.166;3.640;2023-12-07T06:45:04;8.30;;;5.25;;
74102;SDS011;62853;46.166;3.640;2023-12-07T06:47:35;8.18;;;5.50;;
74102;SDS011;62853;46.166;3.640;2023-12-07T06:50:00;8.98;;;5.25;;
74102;SDS011;62853;46.166;3.640;2023-12-07T06:52:27;9.20;;;5.55;;
74102;SDS011;62853;46.166;3.640;2023-12-07T06:54:53;9.82;;;5.93;;
74102;SDS011;62853;46.166;3.640;2023-12-07T06:57:18;10.23;;;6.00;;
74102;SDS011;62853;46.166;3.640;2023-12-07T06:59:43;9.27;;;5.68;;
74102;SDS011;62853;46.166;3.640;2023-12-07T07:02:09;8.88;;;5.68;;
74102;SDS011;62853;46.166;3.640;2023-12-07T07:04:34;9.55;;;5.32;;
74102;SDS011;62853;46.166;3.640;2023-12-07T07:07:00;8.75;;;5.45;;
74102;SDS011;62853;46.166;3.640;2023-12-07T07:09:25;9.65;;;5.72;;
74102;SDS011;62853;46.166;3.640;2023-12-07T07:11:51;10.15;;;6.10;;
74102;SDS011;62853;46.166;3.640;2023-12-07T07:14:16;9.82;;;5.40;;
74102;SDS011;62853;46.166;3.640;2023-12-07T07:16:42;9.35;;;5.57;;
74102;SDS011;62853;46.166;3.640;2023-12-07T07:19:07;10.65;;;6.07;;
74102;SDS011;62853;46.166;3.640;2023-12-07T07:21:33;9.50;;;5.95;;
74102;SDS011;62853;46.166;3.640;2023-12-07T07:23:58;9.40;;;5.60;;
74102;SDS011;62853;46.166;3.640;2023-12-07T07:26:24;10.52;;;5.85;;
74102;SDS011;62853;46.166;3.640;2023-12-07T07:28:50;10.07;;;5.70;;
74102;SDS011;62853;46.166;3.640;2023-12-07T07:31:16;9.52;;;5.50;;
74102;SDS011;62853;46.166;3.640;2023-12-07T07:33:42;9.00;;;5.43;;
74102;SDS011;62853;46.166;3.640;2023-12-07T07:36:08;10.43;;;5.72;;
74102;SDS011;62853;46.166;3.640;2023-12-07T07:38:34;8.98;;;5.82;;
74102;SDS011;62853;46.166;3.640;2023-12-07T07:41:00;10.40;;;5.82;;
74102;SDS011;62853;46.166;3.640;2023-12-07T07:43:25;9.75;;;5.70;;
74102;SDS011;62853;46.166;3.640;2023-12-07T07:45:51;10.52;;;6.38;;
74102;SDS011;62853;46.166;3.640;2023-12-07T07:48:16;9.57;;;6.13;;
74102;SDS011;62853;46.166;3.640;2023-12-07T07:50:41;11.48;;;5.93;;
74102;SDS011;62853;46.166;3.640;2023-12-07T07:53:07;9.00;;;5.40;;
74102;SDS011;62853;46.166;3.640;2023-12-07T07:55:32;8.98;;;5.47;;
74102;SDS011;62853;46.166;3.640;2023-12-07T07:57:57;9.13;;;5.68;;
74102;SDS011;62853;46.166;3.640;2023-12-07T08:00:23;9.52;;;5.80;;
74102;SDS011;62853;46.166;3.640;2023-12-07T08:02:51;9.82;;;5.68;;
74102;SDS011;62853;46.166;3.640;2023-12-07T08:05:16;10.65;;;5.65;;
74102;SDS011;62853;46.166;3.640;2023-12-07T08:07:42;9.07;;;5.43;;
74102;SDS011;62853;46.166;3.640;2023-12-07T08:10:07;10.32;;;5.47;;
74102;SDS011;62853;46.166;3.640;2023-12-07T08:12:34;9.75;;;6.00;;
74102;SDS011;62853;46.166;3.640;2023-12-07T08:15:00;9.88;;;5.68;;
74102;SDS011;62853;46.166;3.640;2023-12-07T08:17:25;11.70;;;6.03;;
74102;SDS011;62853;46.166;3.640;2023-12-07T08:19:51;10.35;;;6.07;;
74102;SDS011;62853;46.166;3.640;2023-12-07T08:22:17;10.23;;;5.70;;
74102;SDS011;62853;46.166;3.640;2023-12-07T08:24:42;8.98;;;5.57;;
74102;SDS011;62853;46.166;3.640;2023-12-07T08:27:08;10.07;;;5.78;;
74102;SDS011;62853;46.166;3.640;2023-12-07T08:29:34;8.57;;;5.40;;
74102;SDS011;62853;46.166;3.640;2023-12-07T08:31:59;10.85;;;5.93;;
74102;SDS011;62853;46.166;3.640;2023-12-07T08:34:25;9.23;;;5.90;;
74102;SDS011;62853;46.166;3.640;2023-12-07T08:36:50;10.60;;;6.00;;
74102;SDS011;62853;46.166;3.640;2023-12-07T08:39:15;10.75;;;5.57;;
74102;SDS011;62853;46.166;3.640;2023-12-07T08:41:41;8.70;;;5.35;;
74102;SDS011;62853;46.166;3.640;2023-12-07T08:44:07;11.23;;;5.85;;
74102;SDS011;62853;46.166;3.640;2023-12-07T08:46:32;9.80;;;6.15;;
74102;SDS011;62853;46.166;3.640;2023-12-07T08:48:58;8.25;;;5.30;;
74102;SDS011;62853;46.166;3.640;2023-12-07T08:51:24;9.95;;;6.15;;
74102;SDS011;62853;46.166;3.640;2023-12-07T08:53:49;12.48;;;7.07;;
74102;SDS011;62853;46.166;3.640;2023-12-07T08:56:16;8.85;;;5.65;;
74102;SDS011;62853;46.166;3.640;2023-12-07T08:58:42;9.90;;;5.65;;
74102;SDS011;62853;46.166;3.640;2023-12-07T09:01:07;11.00;;;6.00;;
74102;SDS011;62853;46.166;3.640;2023-12-07T09:03:32;10.80;;;5.68;;
74102;SDS011;62853;46.166;3.640;2023-12-07T09:05:59;9.15;;;5.82;;
74102;SDS011;62853;46.166;3.640;2023-12-07T09:08:25;10.30;;;5.78;;
74102;SDS011;62853;46.166;3.640;2023-12-07T09:10:50;10.32;;;5.95;;
74102;SDS011;62853;46.166;3.640;2023-12-07T09:13:16;10.93;;;5.93;;
74102;SDS011;62853;46.166;3.640;2023-12-07T09:15:42;10.50;;;5.70;;
74102;SDS011;62853;46.166;3.640;2023-12-07T09:18:08;9.77;;;6.47;;
74102;SDS011;62853;46.166;3.640;2023-12-07T09:20:33;11.00;;;6.55;;
74102;SDS011;62853;46.166;3.640;2023-12-07T09:22:58;10.77;;;6.03;;
74102;SDS011;62853;46.166;3.640;2023-12-07T09:25:24;9.85;;;5.82;;
74102;SDS011;62853;46.166;3.640;2023-12-07T09:27:52;10.98;;;6.22;;
74102;SDS011;62853;46.166;3.640;2023-12-07T09:30:18;11.20;;;6.45;;
74102;SDS011;62853;46.166;3.640;2023-12-07T09:32:44;11.63;;;6.00;;
74102;SDS011;62853;46.166;3.640;2023-12-07T09:35:09;9.52;;;6.00;;
74102;SDS011;62853;46.166;3.640;2023-12-07T09:37:48;11.07;;;6.53;;
74102;SDS011;62853;46.166;3.640;2023-12-07T09:40:14;9.48;;;6.15;;
74102;SDS011;62853;46.166;3.640;2023-12-07T09:42:42;11.38;;;6.45;;
74102;SDS011;62853;46.166;3.640;2023-12-07T09:45:08;9.32;;;5.97;;
74102;SDS011;62853;46.166;3.640;2023-12-07T09:47:34;9.05;;;5.88;;
74102;SDS011;62853;46.166;3.640;2023-12-07T09:50:03;9.85;;;6.07;;
74102;SDS011;62853;46.166;3.640;2023-12-07T09:52:34;9.63;;;5.85;;
74102;SDS011;62853;46.166;3.640;2023-12-07T09:55:01;9.30;;;5.88;;
74102;SDS011;62853;46.166;3.640;2023-12-07T09:57:28;8.93;;;6.03;;
74102;SDS011;62853;46.166;3.640;2023-12-07T09:59:54;8.60;;;5.28;;
74102;SDS011;62853;46.166;3.640;2023-12-07T10:02:21;9.23;;;5.80;;
74102;SDS011;62853;46.166;3.640;2023-12-07T10:04:46;9.35;;;6.07;;
74102;SDS011;62853;46.166;3.640;2023-12-07T10:07:13;11.10;;;6.15;;
74102;SDS011;62853;46.166;3.640;2023-12-07T10:09:41;10.25;;;6.35;;
74102;SDS011;62853;46.166;3.640;2023-12-07T10:12:07;9.32;;;6.57;;
74102;SDS011;62853;46.166;3.640;2023-12-07T10:14:33;10.55;;;6.18;;
74102;SDS011;62853;46.166;3.640;2023-12-07T10:16:58;9.48;;;6.40;;
74102;SDS011;62853;46.166;3.640;2023-12-07T10:19:25;9.05;;;6.00;;
74102;SDS011;62853;46.166;3.640;2023-12-07T10:21:52;9.40;;;6.43;;
74102;SDS011;62853;46.166;3.640;2023-12-07T10:24:18;10.68;;;6.30;;
74102;SDS011;62853;46.166;3.640;2023-12-07T10:26:45;10.00;;;6.47;;
74102;SDS011;62853;46.166;3.640;2023-12-07T10:29:11;9.38;;;5.75;;
74102;SDS011;62853;46.166;3.640;2023-12-07T10:31:37;9.35;;;5.57;;
74102;SDS011;62853;46.166;3.640;2023-12-07T10:34:03;9.68;;;6.00;;
74102;SDS011;62853;46.166;3.640;2023-12-07T10:36:29;8.10;;;5.60;;
74102;SDS011;62853;46.166;3.640;2023-12-07T10:38:54;9.80;;;5.70;;
74102;SDS011;62853;46.166;3.640;2023-12-07T10:41:20;8.50;;;5.18;;
74102;SDS011;62853;46.166;3.640;2023-12-07T10:43:49;9.68;;;5.78;;
74102;SDS011;62853;46.166;3.640;2023-12-07T10:46:19;7.85;;;5.28;;
74102;SDS011;62853;46.166;3.640;2023-12-07T10:48:46;8.60;;;5.05;;
74102;SDS011;62853;46.166;3.640;2023-12-07T10:51:14;7.55;;;5.20;;
74102;SDS011;62853;46.166;3.640;2023-12-07T10:53:45;7.65;;;4.97;;
74102;SDS011;62853;46.166;3.640;2023-12-07T10:56:15;8.35;;;5.40;;
74102;SDS011;62853;46.166;3.640;2023-12-07T10:58:48;8.23;;;5.28;;
74102;SDS011;62853;46.166;3.640;2023-12-07T11:01:15;6.70;;;4.82;;
74102;SDS011;62853;46.166;3.640;2023-12-07T11:03:42;8.23;;;4.80;;
74102;SDS011;62853;46.166;3.640;2023-12-07T11:06:10;6.53;;;4.97;;
74102;SDS011;62853;46.166;3.640;2023-12-07T11:08:41;7.57;;;4.75;;
74102;SDS011;62853;46.166;3.640;2023-12-07T11:11:21;7.82;;;4.85;;
74102;SDS011;62853;46.166;3.640;2023-12-07T11:13:57;8.38;;;4.50;;
74102;SDS011;62853;46.166;3.640;2023-12-07T11:16:30;6.78;;;4.43;;
74102;SDS011;62853;46.166;3.640;2023-12-07T11:19:03;6.63;;;4.53;;
74102;SDS011;62853;46.166;3.640;2023-12-07T11:21:32;7.00;;;4.78;;
74102;SDS011;62853;46.166;3.640;2023-12-07T11:24:00;5.95;;;4.22;;
74102;SDS011;62853;46.166;3.640;2023-12-07T11:26:29;7.00;;;4.53;;
74102;SDS011;62853;46.166;3.640;2023-12-07T11:28:54;6.45;;;4.28;;
74102;SDS011;62853;46.166;3.640;2023-12-07T11:31:21;6.03;;;4.43;;
74102;SDS011;62853;46.166;3.640;2023-12-07T11:33:46;6.00;;;4.20;;
74102;SDS011;62853;46.166;3.640;2023-12-07T11:36:13;6.75;;;4.45;;
74102;SDS011;62853;46.166;3.640;2023-12-07T11:41:44;5.15;;;3.70;;
74102;SDS011;62853;46.166;3.640;2023-12-07T11:44:10;5.97;;;4.20;;
74102;SDS011;62853;46.166;3.640;2023-12-07T11:46:37;6.78;;;6.07;;
74102;SDS011;62853;46.166;3.640;2023-12-07T11:49:03;7.10;;;6.38;;
74102;SDS011;62853;46.166;3.640;2023-12-07T11:51:29;6.55;;;5.88;;
74102;SDS011;62853;46.166;3.640;2023-12-07T11:53:54;7.43;;;6.20;;
74102;SDS011;62853;46.166;3.640;2023-12-07T11:56:20;6.72;;;5.80;;
74102;SDS011;62853;46.166;3.640;2023-12-07T11:58:46;6.50;;;5.88;;
74102;SDS011;62853;46.166;3.640;2023-12-07T12:01:12;6.47;;;5.88;;
74102;SDS011;62853;46.166;3.640;2023-12-07T12:03:38;6.55;;;5.93;;
74102;SDS011;62853;46.166;3.640;2023-12-07T12:06:04;6.70;;;5.93;;
74102;SDS011;62853;46.166;3.640;2023-12-07T12:08:31;6.20;;;5.60;;
74102;SDS011;62853;46.166;3.640;2023-12-07T12:10:56;5.75;;;5.15;;
74102;SDS011;62853;46.166;3.640;2023-12-07T12:13:28;6.30;;;5.60;;
74102;SDS011;62853;46.166;3.640;2023-12-07T12:15:59;6.07;;;5.47;;
74102;SDS011;62853;46.166;3.640;2023-12-07T12:18:26;6.30;;;4.20;;
74102;SDS011;62853;46.166;3.640;2023-12-07T12:20:52;4.80;;;3.72;;
74102;SDS011;62853;46.166;3.640;2023-12-07T12:23:18;6.43;;;4.15;;
74102;SDS011;62853;46.166;3.640;2023-12-07T12:25:44;5.07;;;4.10;;
74102;SDS011;62853;46.166;3.640;2023-12-07T12:28:10;6.90;;;4.60;;
74102;SDS011;62853;46.166;3.640;2023-12-07T12:30:39;5.85;;;4.05;;
74102;SDS011;62853;46.166;3.640;2023-12-07T12:33:05;5.65;;;3.72;;
74102;SDS011;62853;46.166;3.640;2023-12-07T12:35:31;6.18;;;3.60;;
74102;SDS011;62853;46.166;3.640;2023-12-07T12:37:57;6.57;;;5.88;;
74102;SDS011;62853;46.166;3.640;2023-12-07T12:40:23;6.72;;;6.03;;
74102;SDS011;62853;46.166;3.640;2023-12-07T12:42:52;6.30;;;5.70;;
74102;SDS011;62853;46.166;3.640;2023-12-07T12:45:18;6.55;;;5.82;;
74102;SDS011;62853;46.166;3.640;2023-12-07T12:47:44;6.57;;;5.82;;
74102;SDS011;62853;46.166;3.640;2023-12-07T12:50:12;5.28;;;4.13;;
74102;SDS011;62853;46.166;3.640;2023-12-07T12:52:57;6.55;;;4.20;;
74102;SDS011;62853;46.166;3.640;2023-12-07T12:55:25;7.28;;;6.40;;
74102;SDS011;62853;46.166;3.640;2023-12-07T12:57:51;6.38;;;5.60;;
74102;SDS011;62853;46.166;3.640;2023-12-07T13:00:16;6.20;;;5.60;;
74102;SDS011;62853;46.166;3.640;2023-12-07T13:02:42;5.55;;;5.05;;
74102;SDS011;62853;46.166;3.640;2023-12-07T13:05:07;5.50;;;5.00;;
74102;SDS011;62853;46.166;3.640;2023-12-07T13:07:32;5.72;;;5.13;;
74102;SDS011;62853;46.166;3.640;2023-12-07T13:09:58;5.47;;;3.50;;
74102;SDS011;62853;46.166;3.640;2023-12-07T13:12:23;5.75;;;5.20;;
74102;SDS011;62853;46.166;3.640;2023-12-07T13:14:50;5.68;;;5.13;;
74102;SDS011;62853;46.166;3.640;2023-12-07T13:17:15;5.68;;;5.18;;
74102;SDS011;62853;46.166;3.640;2023-12-07T13:19:41;4.57;;;3.70;;
74102;SDS011;62853;46.166;3.640;2023-12-07T13:22:06;5.63;;;5.10;;
74102;SDS011;62853;46.166;3.640;2023-12-07T13:24:32;6.10;;;5.50;;
74102;SDS011;62853;46.166;3.640;2023-12-07T13:26:57;5.43;;;4.93;;
74102;SDS011;62853;46.166;3.640;2023-12-07T13:29:25;5.22;;;3.47;;
74102;SDS011;62853;46.166;3.640;2023-12-07T13:31:50;4.63;;;3.75;;
74102;SDS011;62853;46.166;3.640;2023-12-07T13:34:16;8.90;;;4.78;;
74102;SDS011;62853;46.166;3.640;2023-12-07T13:36:41;5.28;;;4.32;;
74102;SDS011;62853;46.166;3.640;2023-12-07T13:39:07;6.93;;;6.15;;
74102;SDS011;62853;46.166;3.640;2023-12-07T13:41:33;8.23;;;6.93;;
74102;SDS011;62853;46.166;3.640;2023-12-07T13:43:59;7.43;;;6.55;;
74102;SDS011;62853;46.166;3.640;2023-12-07T13:46:26;8.95;;;6.72;;
74102;SDS011;62853;46.166;3.640;2023-12-07T13:48:52;8.00;;;7.20;;
74102;SDS011;62853;46.166;3.640;2023-12-07T13:51:17;7.45;;;6.68;;
74102;SDS011;62853;46.166;3.640;2023-12-07T13:53:43;6.38;;;4.80;;
74102;SDS011;62853;46.166;3.640;2023-12-07T13:56:09;7.15;;;4.72;;
74102;SDS011;62853;46.166;3.640;2023-12-07T13:58:34;8.88;;;5.00;;
74102;SDS011;62853;46.166;3.640;2023-12-07T14:01:00;7.85;;;5.53;;
74102;SDS011;62853;46.166;3.640;2023-12-07T14:03:26;6.55;;;4.88;;
74102;SDS011;62853;46.166;3.640;2023-12-07T14:05:52;7.25;;;5.10;;
74102;SDS011;62853;46.166;3.640;2023-12-07T14:08:17;8.85;;;5.72;;
74102;SDS011;62853;46.166;3.640;2023-12-07T14:10:44;7.47;;;5.63;;
74102;SDS011;62853;46.166;3.640;2023-12-07T14:13:09;7.97;;;6.07;;
74102;SDS011;62853;46.166;3.640;2023-12-07T14:15:35;8.75;;;7.93;;
74102;SDS011;62853;46.166;3.640;2023-12-07T14:18:00;9.02;;;8.02;;
74102;SDS011;62853;46.166;3.640;2023-12-07T14:20:27;9.02;;;7.97;;
74102;SDS011;62853;46.166;3.640;2023-12-07T14:22:53;9.48;;;8.57;;
74102;SDS011;62853;46.166;3.640;2023-12-07T14:25:22;9.18;;;5.70;;
74102;SDS011;62853;46.166;3.640;2023-12-07T14:27:48;8.02;;;5.35;;
74102;SDS011;62853;46.166;3.640;2023-12-07T14:30:14;8.27;;;6.00;;
74102;SDS011;62853;46.166;3.640;2023-12-07T14:32:41;11.15;;;7.20;;
74102;SDS011;62853;46.166;3.640;2023-12-07T14:35:13;10.90;;;7.68;;
74102;SDS011;62853;46.166;3.640;2023-12-07T14:37:38;13.10;;;7.93;;
74102;SDS011;62853;46.166;3.640;2023-12-07T14:40:06;10.48;;;7.65;;